Time;durP1;ratioP1;P1;durP2;ratioP2;P2;SDS_P1;SDS_P2;PMS_P1;PMS_P2;Temp;Humidity;BMP_temperature;BMP_pressure;BME280_temperature;BME280_humidity;BME280_pressure;Samples;Min_cycle;Max_cycle;Signal;HPM_P1;HPM_P2
2022/04/08 00:00:17;;;;;;;0.32;0.17;;;;;;;;;;10443460;28;20044;-76
2022/04/08 00:05:21;;;;;;;1.10;0.50;;;;;;;;;;10425543;28;20044;-75
2022/04/08 00:10:24;;;;;;;1.55;0.20;;;;;;;;;;10445376;28;20039;-75
2022/04/08 00:15:27;;;;;;;0.50;0.10;;;;;;;;;;10429819;28;20122;-74
2022/04/08 00:20:32;;;;;;;;;;;;;;;;;;10444822;28;20041;-75
2022/04/08 00:25:36;;;;;;;0.53;0.30;;;;;;;;;;10432011;28;20392;-75
2022/04/08 00:30:39;;;;;;;;;;;;;;;;;;10449525;28;20671;-75
2022/04/08 00:35:43;;;;;;;0.85;0.40;;;;;;;;;;10457196;28;19920;-77
2022/04/08 00:40:48;;;;;;;0.80;0.30;;;;;;;;;;10450318;28;20112;-74
2022/04/08 00:45:50;;;;;;;0.45;0.35;;;;;;;;;;10438904;28;20095;-74
2022/04/08 00:50:54;;;;;;;2.10;0.38;;;;;;;;;;10426677;28;20049;-75
2022/04/08 00:55:58;;;;;;;1.50;0.20;;;;;;;;;;10431311;28;20090;-75
2022/04/08 01:01:02;;;;;;;1.15;0.60;;;;;;;;;;10439160;28;20449;-74
2022/04/08 01:06:05;;;;;;;0.52;0.43;;;;;;;;;;10425555;28;20441;-75
2022/04/08 01:11:10;;;;;;;1.63;0.50;;;;;;;;;;10424761;28;20043;-75
2022/04/08 01:16:13;;;;;;;1.92;0.43;;;;;;;;;;10443763;28;20384;-76
2022/04/08 01:21:17;;;;;;;1.15;0.60;;;;;;;;;;10442166;28;20721;-75
2022/04/08 01:26:21;;;;;;;1.30;0.80;;;;;;;;;;10444488;28;20147;-76
2022/04/08 01:31:25;;;;;;;1.17;0.52;;;;;;;;;;10444241;28;20510;-75
2022/04/08 01:36:28;;;;;;;1.40;0.50;;;;;;;;;;10420811;28;20037;-76
2022/04/08 01:41:32;;;;;;;2.00;0.60;;;;;;;;;;10438399;28;20052;-77
2022/04/08 01:46:34;;;;;;;0.88;0.30;;;;;;;;;;10419167;28;20045;-76
2022/04/08 01:51:38;;;;;;;0.75;0.30;;;;;;;;;;10421140;28;20040;-76
2022/04/08 01:56:43;;;;;;;0.68;0.35;;;;;;;;;;10436141;28;20116;-75
2022/04/08 02:01:46;;;;;;;;;;;;;;;;;;10438528;28;20029;-76
2022/04/08 02:06:50;;;;;;;4.65;1.20;;;;;;;;;;10436529;28;19974;-76
2022/04/08 02:11:54;;;;;;;1.60;0.80;;;;;;;;;;10420477;28;20056;-76
2022/04/08 02:16:57;;;;;;;2.85;0.70;;;;;;;;;;10435876;28;20485;-77
2022/04/08 02:22:00;;;;;;;3.17;0.75;;;;;;;;;;10428093;28;20092;-73
2022/04/08 02:27:06;;;;;;;0.77;0.30;;;;;;;;;;10468943;28;20131;-76
2022/04/08 02:32:10;;;;;;;4.40;0.93;;;;;;;;;;10427516;28;20083;-74
2022/04/08 02:37:13;;;;;;;2.53;0.90;;;;;;;;;;10437828;28;20045;-75
2022/04/08 02:42:17;;;;;;;2.85;0.82;;;;;;;;;;10425307;28;20044;-77
2022/04/08 02:47:22;;;;;;;1.98;0.75;;;;;;;;;;10442523;28;20048;-75
2022/04/08 02:52:25;;;;;;;5.83;1.10;;;;;;;;;;10443995;28;20068;-76
2022/04/08 02:57:30;;;;;;;1.50;0.50;;;;;;;;;;10463784;22;21072;-70
2022/04/08 03:02:33;;;;;;;1.80;0.70;;;;;;;;;;10434346;28;20481;-68
2022/04/08 03:07:37;;;;;;;5.50;1.10;;;;;;;;;;10419487;28;20179;-69
2022/04/08 03:12:41;;;;;;;7.18;1.00;;;;;;;;;;10438402;22;20501;-72
2022/04/08 03:17:45;;;;;;;5.45;1.55;;;;;;;;;;10417945;28;20034;-72
2022/04/08 03:22:48;;;;;;;1.48;0.90;;;;;;;;;;10371355;28;20049;-73
2022/04/08 03:27:53;;;;;;;7.28;1.70;;;;;;;;;;10377730;28;20037;-71
2022/04/08 03:32:56;;;;;;;;;;;;;;;;;;10350208;28;20091;-72
2022/04/08 03:37:59;;;;;;;1.50;0.63;;;;;;;;;;10352004;28;20298;-71
2022/04/08 03:43:02;;;;;;;;;;;;;;;;;;10365611;28;20034;-71
2022/04/08 03:48:08;;;;;;;4.15;1.00;;;;;;;;;;10374291;28;20389;-71
2022/04/08 03:53:12;;;;;;;0.68;0.25;;;;;;;;;;10349919;28;20137;-72
2022/04/08 03:58:15;;;;;;;3.63;1.10;;;;;;;;;;10368515;28;20576;-72
2022/04/08 04:03:20;;;;;;;9.23;1.30;;;;;;;;;;10352623;28;20086;-73
2022/04/08 04:08:22;;;;;;;;;;;;;;;;;;10363829;28;20073;-71
2022/04/08 04:13:25;;;;;;;10.32;1.17;;;;;;;;;;10361354;28;19972;-72
2022/04/08 04:18:30;;;;;;;2.50;0.85;;;;;;;;;;10365172;28;20061;-72
2022/04/08 04:23:33;;;;;;;;;;;;;;;;;;10365233;28;20053;-73
2022/04/08 04:28:36;;;;;;;4.65;0.52;;;;;;;;;;10363393;28;19944;-71
2022/04/08 04:33:40;;;;;;;3.10;0.98;;;;;;;;;;10350947;28;20103;-73
2022/04/08 04:38:45;;;;;;;1.92;0.77;;;;;;;;;;10344296;28;20041;-72
2022/04/08 04:43:48;;;;;;;1.33;0.50;;;;;;;;;;10367314;28;20038;-72
2022/04/08 04:48:53;;;;;;;1.00;0.68;;;;;;;;;;10362452;28;20042;-72
2022/04/08 04:53:57;;;;;;;1.65;0.75;;;;;;;;;;10360182;28;20026;-72
2022/04/08 04:59:00;;;;;;;4.13;1.02;;;;;;;;;;10363255;28;20038;-71
2022/04/08 05:04:04;;;;;;;1.52;0.90;;;;;;;;;;10365536;28;20042;-74
2022/04/08 05:09:07;;;;;;;0.65;0.25;;;;;;;;;;10347606;28;20041;-73
2022/04/08 05:14:10;;;;;;;7.28;0.85;;;;;;;;;;10364170;28;20038;-72
2022/04/08 05:19:17;;;;;;;1.75;0.68;;;;;;;;;;10364881;28;20044;-73
2022/04/08 05:24:20;;;;;;;1.27;0.57;;;;;;;;;;10364282;28;20041;-74
2022/04/08 05:29:24;;;;;;;1.40;0.68;;;;;;;;;;10364479;28;20046;-72
2022/04/08 05:34:28;;;;;;;1.98;0.80;;;;;;;;;;10356308;28;20038;-72
2022/04/08 05:39:31;;;;;;;1.98;0.82;;;;;;;;;;10343186;28;20093;-72
2022/04/08 05:44:33;;;;;;;5.32;1.20;;;;;;;;;;10372213;28;20455;-72
2022/04/08 05:49:37;;;;;;;2.97;0.73;;;;;;;;;;10368131;28;20044;-73
2022/04/08 05:54:41;;;;;;;7.47;0.93;;;;;;;;;;10366527;28;20065;-72
2022/04/08 05:59:44;;;;;;;3.78;1.02;;;;;;;;;;10367655;28;20041;-72
2022/04/08 06:04:48;;;;;;;1.13;0.55;;;;;;;;;;10367378;28;20524;-73
2022/04/08 06:09:50;;;;;;;;;;;;;;;;;;10352594;28;20099;-72
2022/04/08 06:14:54;;;;;;;0.90;0.50;;;;;;;;;;10373069;28;20431;-72
2022/04/08 06:19:59;;;;;;;1.40;0.52;;;;;;;;;;10365435;28;20125;-72
2022/04/08 06:25:02;;;;;;;1.85;0.40;;;;;;;;;;10357759;28;20121;-72
2022/04/08 06:30:09;;;;;;;1.27;0.40;;;;;;;;;;10360333;28;20104;-73
2022/04/08 06:35:13;;;;;;;3.25;0.80;;;;;;;;;;10371289;28;20581;-73
2022/04/08 06:40:16;;;;;;;4.00;0.80;;;;;;;;;;10351719;28;20383;-73
2022/04/08 06:45:19;;;;;;;2.85;1.20;;;;;;;;;;10354683;28;20069;-74
2022/04/08 06:50:24;;;;;;;3.45;1.25;;;;;;;;;;10356597;28;20513;-73
2022/04/08 06:55:27;;;;;;;7.40;1.40;;;;;;;;;;10356856;28;20113;-72
2022/04/08 07:00:30;;;;;;;3.95;1.38;;;;;;;;;;10358318;28;20045;-74
2022/04/08 07:05:35;;;;;;;3.05;1.40;;;;;;;;;;10366875;28;20042;-73
2022/04/08 07:10:38;;;;;;;;;;;;;;;;;;10375089;28;20050;-72
2022/04/08 07:15:41;;;;;;;3.10;1.13;;;;;;;;;;10368754;28;19929;-73
2022/04/08 07:20:45;;;;;;;4.38;0.98;;;;;;;;;;10367837;28;20046;-73
2022/04/08 07:25:48;;;;;;;;;;;;;;;;;;10369801;28;20045;-73
2022/04/08 07:30:51;;;;;;;3.15;1.30;;;;;;;;;;10367650;28;19928;-73
2022/04/08 07:35:58;;;;;;;4.25;0.70;;;;;;;;;;10343938;28;20046;-73
2022/04/08 07:41:01;;;;;;;1.70;0.95;;;;;;;;;;10370733;28;20040;-73
2022/04/08 07:46:04;;;;;;;1.85;1.05;;;;;;;;;;10370593;28;20060;-72
2022/04/08 07:51:08;;;;;;;5.83;2.30;;;;;;;;;;10369880;28;20072;-72
2022/04/08 07:56:11;;;;;;;1.20;0.93;;;;;;;;;;10366623;28;20041;-72
2022/04/08 08:01:14;;;;;;;2.42;0.90;;;;;;;;;;10348064;28;20053;-73
2022/04/08 08:06:18;;;;;;;3.95;1.00;;;;;;;;;;10376473;28;20406;-73
2022/04/08 08:11:21;;;;;;;2.03;1.10;;;;;;;;;;10353110;28;20510;-74
2022/04/08 08:16:29;;;;;;;3.95;1.17;;;;;;;;;;10361499;28;20080;-73
2022/04/08 08:21:34;;;;;;;4.45;0.90;;;;;;;;;;10371391;28;20080;-73
2022/04/08 08:26:37;;;;;;;1.73;0.93;;;;;;;;;;10367358;28;20471;-74
2022/04/08 08:31:40;;;;;;;0.57;0.47;;;;;;;;;;10348985;28;20045;-73
2022/04/08 08:36:51;;;;;;;0.73;0.40;;;;;;;;;;10351496;28;20038;-72
2022/04/08 08:41:55;;;;;;;0.57;0.35;;;;;;;;;;10363244;28;20465;-73
2022/04/08 08:46:59;;;;;;;3.28;0.82;;;;;;;;;;10358417;28;20201;-73
2022/04/08 08:52:06;;;;;;;0.63;0.43;;;;;;;;;;10359935;28;20033;-73
2022/04/08 08:57:10;;;;;;;26.83;4.70;;;;;;;;;;10367972;28;20049;-73
2022/04/08 09:02:17;;;;;;;0.50;0.43;;;;;;;;;;10366244;28;20462;-72
2022/04/08 09:07:26;;;;;;;3.30;0.68;;;;;;;;;;10366820;28;20224;-73
2022/04/08 09:12:29;;;;;;;3.20;1.13;;;;;;;;;;10408637;22;20044;-70
2022/04/08 09:17:32;;;;;;;11.70;1.80;;;;;;;;;;10469966;28;20477;-72
2022/04/08 09:22:37;;;;;;;13.25;2.65;;;;;;;;;;10439317;28;20116;-69
2022/04/08 09:27:41;;;;;;;4.70;1.40;;;;;;;;;;10438595;28;20061;-70
2022/04/08 09:32:44;;;;;;;2.50;1.15;;;;;;;;;;10426664;28;20049;-69
2022/04/08 09:37:59;;;;;;;2.85;1.52;;;;;;;;;;10417028;28;20033;-69
2022/04/08 09:43:02;;;;;;;2.05;1.00;;;;;;;;;;10434756;28;20124;-70
2022/04/08 09:48:07;;;;;;;3.33;1.17;;;;;;;;;;10420704;28;20056;-70
2022/04/08 09:53:13;;;;;;;1.27;0.93;;;;;;;;;;10435248;28;20045;-71
2022/04/08 09:58:16;;;;;;;4.50;1.20;;;;;;;;;;10425167;28;20096;-70
2022/04/08 10:03:19;;;;;;;;;;;;;;;;;;10430086;28;20044;-70
2022/04/08 10:08:23;;;;;;;2.08;1.38;;;;;;;;;;10441281;28;19921;-68
2022/04/08 10:13:32;;;;;;;15.98;2.75;;;;;;;;;;10431711;28;20029;-69
2022/04/08 10:18:37;;;;;;;10.15;2.58;;;;;;;;;;10440012;28;20501;-69
2022/04/08 10:23:47;;;;;;;15.93;2.47;;;;;;;;;;10418707;28;20059;-69
2022/04/08 10:28:51;;;;;;;5.05;1.50;;;;;;;;;;10419097;28;20463;-70
2022/04/08 10:33:56;;;;;;;3.90;1.70;;;;;;;;;;10429924;28;20037;-68
2022/04/08 10:39:12;;;;;;;12.70;3.55;;;;;;;;;;10439180;28;20041;-69
2022/04/08 10:44:16;;;;;;;2.30;0.98;;;;;;;;;;10419367;28;20029;-71
2022/04/08 10:49:24;;;;;;;2.60;1.23;;;;;;;;;;10446184;28;20041;-67
2022/04/08 10:54:38;;;;;;;1.17;0.98;;;;;;;;;;10439534;28;20068;-71
2022/04/08 10:59:41;;;;;;;3.15;1.90;;;;;;;;;;10425034;28;20500;-71
2022/04/08 11:04:43;;;;;;;6.55;1.65;;;;;;;;;;10445309;28;20516;-71
2022/04/08 11:09:54;;;;;;;2.42;1.35;;;;;;;;;;10448738;28;20405;-72
2022/04/08 11:14:58;;;;;;;49.72;5.82;;;;;;;;;;10430525;28;20052;-71
2022/04/08 11:20:00;;;;;;;3.50;1.55;;;;;;;;;;10442771;28;20052;-70
2022/04/08 11:25:05;;;;;;;2.15;1.08;;;;;;;;;;10442474;28;20120;-71
2022/04/08 11:30:09;;;;;;;4.35;1.60;;;;;;;;;;10443813;28;20056;-71
2022/04/08 11:35:12;;;;;;;1.88;1.58;;;;;;;;;;10440721;28;20103;-70
2022/04/08 11:40:18;;;;;;;3.38;1.20;;;;;;;;;;10421870;28;20111;-70
2022/04/08 11:45:21;;;;;;;3.63;1.67;;;;;;;;;;10437190;28;20179;-70
2022/04/08 11:50:24;;;;;;;1.60;1.40;;;;;;;;;;10437345;28;20036;-70
2022/04/08 11:55:29;;;;;;;4.82;2.03;;;;;;;;;;10421345;28;20033;-69
2022/04/08 12:00:31;;;;;;;3.97;2.33;;;;;;;;;;10440848;28;20700;-69
2022/04/08 12:05:45;;;;;;;2.80;1.70;;;;;;;;;;10441385;28;20538;-68
2022/04/08 12:11:10;;;;;;;3.38;1.83;;;;;;;;;;10424583;28;20124;-70
2022/04/08 12:16:14;;;;;;;2.92;1.80;;;;;;;;;;10439495;28;20108;-69
2022/04/08 12:21:17;;;;;;;;;;;;;;;;;;10433870;28;20118;-70
2022/04/08 12:26:25;;;;;;;2.05;1.20;;;;;;;;;;10455655;28;19940;-71
2022/04/08 12:31:31;;;;;;;2.10;1.40;;;;;;;;;;10481186;28;20515;-72
2022/04/08 12:36:35;;;;;;;4.50;2.00;;;;;;;;;;10491061;28;20125;-74
2022/04/08 12:41:40;;;;;;;4.15;2.08;;;;;;;;;;10462865;28;20029;-70
2022/04/08 12:46:43;;;;;;;1.30;1.10;;;;;;;;;;10425471;28;20489;-71
2022/04/08 12:51:47;;;;;;;1.67;1.30;;;;;;;;;;10443218;28;20125;-70
2022/04/08 12:56:52;;;;;;;0.82;0.82;;;;;;;;;;10420455;28;20112;-69
2022/04/08 13:01:56;;;;;;;1.88;0.93;;;;;;;;;;10439118;28;20111;-69
2022/04/08 13:07:00;;;;;;;2.43;1.57;;;;;;;;;;10434770;28;20704;-71
2022/04/08 13:12:05;;;;;;;1.05;0.90;;;;;;;;;;10440563;28;20055;-71
2022/04/08 13:17:09;;;;;;;2.53;1.02;;;;;;;;;;10423572;28;20037;-71
2022/04/08 13:22:12;;;;;;;1.38;0.82;;;;;;;;;;10420208;28;20036;-70
2022/04/08 13:27:18;;;;;;;0.43;0.40;;;;;;;;;;10462014;28;20080;-69
2022/04/08 13:32:22;;;;;;;1.75;0.55;;;;;;;;;;10439835;28;20045;-70
2022/04/08 13:37:26;;;;;;;0.55;0.35;;;;;;;;;;10419256;28;20033;-69
2022/04/08 13:42:31;;;;;;;1.13;0.40;;;;;;;;;;10439991;28;20040;-71
2022/04/08 13:47:35;;;;;;;0.30;0.30;;;;;;;;;;10440269;28;20106;-69
2022/04/08 13:52:38;;;;;;;0.30;0.30;;;;;;;;;;10429207;28;20090;-70
2022/04/08 13:57:42;;;;;;;0.73;0.40;;;;;;;;;;10437887;28;20067;-69
2022/04/08 14:02:45;;;;;;;2.35;0.80;;;;;;;;;;10420563;28;20159;-70
2022/04/08 14:07:49;;;;;;;0.43;0.40;;;;;;;;;;10436586;28;20135;-70
2022/04/08 14:12:53;;;;;;;0.77;0.20;;;;;;;;;;10436783;28;20045;-71
2022/04/08 14:17:56;;;;;;;0.38;0.30;;;;;;;;;;10419976;28;20041;-71
2022/04/08 14:22:59;;;;;;;0.60;0.50;;;;;;;;;;10436522;28;20053;-71
2022/04/08 14:28:04;;;;;;;1.85;0.77;;;;;;;;;;10436352;28;20663;-69
2022/04/08 14:33:07;;;;;;;0.50;0.50;;;;;;;;;;10419003;28;20079;-71
2022/04/08 14:38:10;;;;;;;;;;;;;;;;;;10448349;28;20037;-70
2022/04/08 14:43:15;;;;;;;2.13;0.60;;;;;;;;;;10434717;28;19920;-69
2022/04/08 14:48:18;;;;;;;3.58;1.33;;;;;;;;;;10416115;28;20119;-70
2022/04/08 14:53:21;;;;;;;0.43;0.43;;;;;;;;;;10435264;28;20045;-69
2022/04/08 14:58:25;;;;;;;0.63;0.40;;;;;;;;;;10436509;28;20458;-69
2022/04/08 15:03:28;;;;;;;1.08;0.60;;;;;;;;;;10416461;28;20049;-70
2022/04/08 15:08:31;;;;;;;1.00;0.50;;;;;;;;;;10425146;28;20037;-70
2022/04/08 15:13:35;;;;;;;0.83;0.40;;;;;;;;;;10411810;28;20046;-70
2022/04/08 15:18:39;;;;;;;1.40;0.77;;;;;;;;;;10415949;28;20299;-68
2022/04/08 15:23:42;;;;;;;0.40;0.20;;;;;;;;;;10435119;28;20052;-69
2022/04/08 15:28:46;;;;;;;0.67;0.40;;;;;;;;;;10443171;28;20067;-69
2022/04/08 15:33:49;;;;;;;0.22;0.22;;;;;;;;;;10421796;28;20045;-69
2022/04/08 15:38:52;;;;;;;0.68;0.50;;;;;;;;;;10441845;28;20041;-70
2022/04/08 15:43:57;;;;;;;1.15;0.70;;;;;;;;;;10448127;28;20087;-69
2022/04/08 15:49:00;;;;;;;1.65;0.65;;;;;;;;;;10444901;28;20067;-69
2022/04/08 15:54:04;;;;;;;0.87;0.40;;;;;;;;;;10445375;28;20052;-69
2022/04/08 15:59:08;;;;;;;0.93;0.55;;;;;;;;;;10442352;28;20056;-69
2022/04/08 16:04:11;;;;;;;0.55;0.40;;;;;;;;;;10439426;28;20117;-70
2022/04/08 16:09:16;;;;;;;1.27;0.45;;;;;;;;;;10423077;28;20037;-70
2022/04/08 16:14:20;;;;;;;1.45;0.20;;;;;;;;;;10447796;28;20051;-69
2022/04/08 16:19:23;;;;;;;0.40;0.40;;;;;;;;;;10439129;28;20032;-71
2022/04/08 16:24:26;;;;;;;0.88;0.40;;;;;;;;;;10419599;28;20409;-69
2022/04/08 16:29:30;;;;;;;0.27;0.27;;;;;;;;;;10421786;28;20519;-70
2022/04/08 16:34:33;;;;;;;0.10;0.10;;;;;;;;;;10439647;28;20398;-70
2022/04/08 16:39:36;;;;;;;0.20;0.20;;;;;;;;;;10440908;28;20405;-71
2022/04/08 16:44:40;;;;;;;1.13;0.60;;;;;;;;;;10433273;28;20835;-69
2022/04/08 16:49:44;;;;;;;0.90;0.70;;;;;;;;;;10453680;28;20033;-70
2022/04/08 16:54:47;;;;;;;0.80;0.60;;;;;;;;;;10438254;28;20041;-72
2022/04/08 16:59:52;;;;;;;0.40;0.40;;;;;;;;;;10442627;28;20049;-71
2022/04/08 17:04:55;;;;;;;0.40;0.30;;;;;;;;;;10440099;28;20063;-71
2022/04/08 17:09:58;;;;;;;1.35;0.57;;;;;;;;;;10423657;28;20091;-71
2022/04/08 17:15:02;;;;;;;1.53;0.67;;;;;;;;;;10433376;28;20076;-71
2022/04/08 17:20:06;;;;;;;1.65;0.30;;;;;;;;;;10436430;28;20071;-71
2022/04/08 17:25:09;;;;;;;0.55;0.50;;;;;;;;;;10419817;28;20056;-72
2022/04/08 17:30:14;;;;;;;1.70;0.80;;;;;;;;;;10438431;28;20127;-71
2022/04/08 17:35:18;;;;;;;0.55;0.52;;;;;;;;;;10434998;28;20149;-70
2022/04/08 17:40:22;;;;;;;0.30;0.30;;;;;;;;;;10419782;28;20111;-71
2022/04/08 17:45:26;;;;;;;0.80;0.25;;;;;;;;;;10437728;28;20303;-70
2022/04/08 17:50:30;;;;;;;1.00;0.50;;;;;;;;;;10435007;28;20986;-72
2022/04/08 17:55:34;;;;;;;1.00;0.63;;;;;;;;;;10447418;28;20068;-70
2022/04/08 18:00:38;;;;;;;0.47;0.22;;;;;;;;;;10445408;28;20037;-72
2022/04/08 18:05:42;;;;;;;2.40;0.43;;;;;;;;;;10440200;28;20045;-72
2022/04/08 18:11:05;;;;;;;1.35;0.70;;;;;;;;;;10423188;28;20418;-72
2022/04/08 18:16:09;;;;;;;0.82;0.65;;;;;;;;;;10439007;28;20060;-71
2022/04/08 18:21:13;;;;;;;1.00;0.70;;;;;;;;;;10439686;28;20063;-70
2022/04/08 18:26:18;;;;;;;0.73;0.43;;;;;;;;;;10419396;28;20037;-70
2022/04/08 18:31:23;;;;;;;0.50;0.50;;;;;;;;;;10438207;28;20049;-71
2022/04/08 18:36:26;;;;;;;0.55;0.40;;;;;;;;;;10423671;28;20804;-73
2022/04/08 18:41:29;;;;;;;0.40;0.40;;;;;;;;;;10441126;28;20212;-75
2022/04/08 18:46:33;;;;;;;0.20;0.20;;;;;;;;;;10419149;28;20448;-72
2022/04/08 18:51:36;;;;;;;0.90;0.60;;;;;;;;;;10420846;28;20033;-73
2022/04/08 18:56:40;;;;;;;0.68;0.47;;;;;;;;;;10418297;28;20490;-71
2022/04/08 19:01:45;;;;;;;1.52;0.60;;;;;;;;;;10440351;28;20066;-74
2022/04/08 19:06:48;;;;;;;1.65;0.40;;;;;;;;;;10427210;28;20416;-73
2022/04/08 19:11:52;;;;;;;0.20;0.20;;;;;;;;;;10442722;28;20052;-74
2022/04/08 19:16:57;;;;;;;1.30;0.37;;;;;;;;;;10435815;28;20065;-72
2022/04/08 19:22:00;;;;;;;0.40;0.25;;;;;;;;;;10421571;28;20049;-71
2022/04/08 19:27:04;;;;;;;0.85;0.30;;;;;;;;;;10441457;28;20037;-73
2022/04/08 19:32:09;;;;;;;0.95;0.60;;;;;;;;;;10435121;28;20520;-72
2022/04/08 19:37:12;;;;;;;1.65;0.70;;;;;;;;;;10444139;28;20045;-74
2022/04/08 19:42:15;;;;;;;2.67;0.50;;;;;;;;;;10443884;28;20431;-74
2022/04/08 19:47:20;;;;;;;1.33;0.60;;;;;;;;;;10427844;28;20045;-72
2022/04/08 19:52:23;;;;;;;1.35;0.60;;;;;;;;;;10446421;28;20041;-73
2022/04/08 19:57:26;;;;;;;1.15;0.68;;;;;;;;;;10446037;28;20084;-73
2022/04/08 20:02:31;;;;;;;0.77;0.70;;;;;;;;;;10429589;28;20040;-74
2022/04/08 20:07:38;;;;;;;2.58;0.63;;;;;;;;;;10425347;28;20032;-74
2022/04/08 20:12:41;;;;;;;1.23;0.90;;;;;;;;;;10444981;28;20110;-74
2022/04/08 20:17:45;;;;;;;1.90;1.00;;;;;;;;;;10447773;28;20043;-74
2022/04/08 20:22:51;;;;;;;1.88;1.30;;;;;;;;;;10446601;28;20313;-74
2022/04/08 20:27:54;;;;;;;1.13;0.40;;;;;;;;;;10448142;28;20462;-73
2022/04/08 20:32:58;;;;;;;5.17;0.70;;;;;;;;;;10442483;28;20055;-72
2022/04/08 20:38:03;;;;;;;1.30;0.90;;;;;;;;;;10442425;28;20044;-73
2022/04/08 20:43:06;;;;;;;0.60;0.50;;;;;;;;;;10420014;28;20413;-73
2022/04/08 20:48:10;;;;;;;1.60;0.70;;;;;;;;;;10421292;28;20136;-72
2022/04/08 20:53:16;;;;;;;1.35;0.45;;;;;;;;;;10439460;28;20808;-73
2022/04/08 20:58:19;;;;;;;1.23;0.60;;;;;;;;;;10424586;28;20459;-73
2022/04/08 21:03:24;;;;;;;0.90;0.60;;;;;;;;;;10454700;28;20045;-74
2022/04/08 21:08:27;;;;;;;1.45;0.73;;;;;;;;;;10437921;28;20119;-73
2022/04/08 21:13:31;;;;;;;3.90;1.27;;;;;;;;;;10439399;28;20040;-72
2022/04/08 21:18:36;;;;;;;;;;;;;;;;;;10421026;28;20037;-72
2022/04/08 21:23:40;;;;;;;0.65;0.50;;;;;;;;;;10421568;28;19924;-71
2022/04/08 21:28:43;;;;;;;0.90;0.50;;;;;;;;;;10454110;22;20045;-73
2022/04/08 21:33:47;;;;;;;0.73;0.40;;;;;;;;;;10448214;28;20046;-73
2022/04/08 21:38:51;;;;;;;0.77;0.60;;;;;;;;;;10436404;28;20029;-74
2022/04/08 21:43:54;;;;;;;1.95;0.70;;;;;;;;;;10432589;28;20037;-73
2022/04/08 21:48:58;;;;;;;0.85;0.50;;;;;;;;;;10431661;28;20485;-74
2022/04/08 21:54:02;;;;;;;2.40;0.70;;;;;;;;;;10431950;28;20048;-73
2022/04/08 21:59:05;;;;;;;0.35;0.30;;;;;;;;;;10436814;28;20045;-73
2022/04/08 22:04:08;;;;;;;0.55;0.50;;;;;;;;;;10425126;28;20366;-72
2022/04/08 22:09:12;;;;;;;1.60;0.75;;;;;;;;;;10423367;28;21221;-74
2022/04/08 22:14:15;;;;;;;0.73;0.47;;;;;;;;;;10441784;28;20113;-73
2022/04/08 22:19:19;;;;;;;0.30;0.17;;;;;;;;;;10428093;28;20041;-73
2022/04/08 22:24:23;;;;;;;0.90;0.50;;;;;;;;;;10429457;28;20099;-73
2022/04/08 22:29:26;;;;;;;1.45;0.73;;;;;;;;;;10426041;28;20485;-71
2022/04/08 22:34:29;;;;;;;0.70;0.60;;;;;;;;;;10446250;28;20045;-74
2022/04/08 22:39:35;;;;;;;0.63;0.45;;;;;;;;;;10435430;28;20605;-71
2022/04/08 22:44:38;;;;;;;0.50;0.38;;;;;;;;;;10429682;28;20072;-73
2022/04/08 22:49:41;;;;;;;1.17;0.50;;;;;;;;;;10436672;28;20059;-73
2022/04/08 22:54:45;;;;;;;0.68;0.60;;;;;;;;;;10439296;28;20045;-72
2022/04/08 22:59:48;;;;;;;0.20;0.20;;;;;;;;;;10454610;28;20029;-73
2022/04/08 23:04:50;;;;;;;0.32;0.30;;;;;;;;;;10436888;28;20045;-72
2022/04/08 23:09:55;;;;;;;0.52;0.20;;;;;;;;;;10432118;28;20025;-72
2022/04/08 23:14:58;;;;;;;1.38;1.27;;;;;;;;;;10436690;28;20707;-72
2022/04/08 23:20:01;;;;;;;2.28;0.30;;;;;;;;;;10447864;28;20030;-73
2022/04/08 23:25:06;;;;;;;1.63;0.55;;;;;;;;;;10434049;28;20044;-73
2022/04/08 23:30:09;;;;;;;3.38;0.30;;;;;;;;;;10434707;28;20096;-74
2022/04/08 23:35:12;;;;;;;0.90;0.40;;;;;;;;;;10437284;28;20041;-73
2022/04/08 23:40:16;;;;;;;3.78;0.60;;;;;;;;;;10431020;28;20033;-72
2022/04/08 23:45:19;;;;;;;1.52;0.40;;;;;;;;;;10430872;28;20124;-73
2022/04/08 23:50:25;;;;;;;1.43;0.30;;;;;;;;;;10437109;28;20037;-73
2022/04/08 23:55:31;;;;;;;1.08;0.70;;;;;;;;;;10448086;28;20166;-73
